Time,TemperatureF,DewpointF,PressureIn,WindDirection,WindDirectionDegrees,WindSpeedMPH,WindSpeedGustMPH,Humidity,HourlyPrecipIn,Conditions,Clouds,dailyrainin,SolarRadiationWatts/m^2,SoftwareType,DateUTC
2013-08-13 00:12:00,88.0,36.0,-100.00,South,184,7.0,11.0,16,-99.99,,,0.00,0.000000,,2013-08-13 07:12:00,
2013-08-13 00:21:00,88.0,36.0,-100.00,South,184,7.0,11.0,16,-99.99,,,0.00,0.000000,,2013-08-13 07:21:00,
2013-08-13 00:33:00,88.0,36.0,-100.00,South,184,7.0,11.0,16,-99.99,,,0.00,0.000000,,2013-08-13 07:33:00,
2013-08-13 00:42:00,88.0,36.0,-100.00,South,184,7.0,11.0,16,-99.99,,,0.00,0.000000,,2013-08-13 07:42:00,
2013-08-13 01:11:00,82.0,41.0,-100.00,South,183,4.0,11.0,23,0.00,,,0.00,0.000000,,2013-08-13 08:11:00,
2013-08-13 01:21:00,82.0,41.0,-100.00,South,183,4.0,11.0,23,0.00,,,0.00,0.000000,,2013-08-13 08:21:00,
2013-08-13 01:31:00,82.0,41.0,-100.00,South,183,4.0,11.0,23,0.00,,,0.00,0.000000,,2013-08-13 08:31:00,
2013-08-13 01:42:00,82.0,41.0,-100.00,South,183,4.0,11.0,23,0.00,,,0.00,0.000000,,2013-08-13 08:42:00,
2013-08-13 02:11:00,82.0,41.0,-100.00,South,175,6.0,7.0,23,0.00,,,0.00,0.000000,,2013-08-13 09:11:00,
2013-08-13 02:21:00,82.0,41.0,-100.00,South,175,6.0,7.0,23,0.00,,,0.00,0.000000,,2013-08-13 09:21:00,
2013-08-13 02:32:00,82.0,41.0,-100.00,South,175,6.0,7.0,23,0.00,,,0.00,0.000000,,2013-08-13 09:32:00,
2013-08-13 02:43:00,82.0,41.0,-100.00,South,175,6.0,7.0,23,0.00,,,0.00,0.000000,,2013-08-13 09:43:00,
2013-08-13 03:12:00,78.0,43.0,-100.00,SSW,193,4.0,7.0,29,0.00,,,0.00,0.000000,,2013-08-13 10:12:00,
2013-08-13 03:23:00,78.0,43.0,-100.00,SSW,193,4.0,7.0,29,0.00,,,0.00,0.000000,,2013-08-13 10:23:00,
2013-08-13 03:32:00,78.0,43.0,-100.00,SSW,193,4.0,7.0,29,0.00,,,0.00,0.000000,,2013-08-13 10:32:00,
2013-08-13 03:42:00,78.0,43.0,-100.00,SSW,193,4.0,7.0,29,0.00,,,0.00,0.000000,,2013-08-13 10:42:00,
2013-08-13 04:11:00,76.0,40.0,-100.00,SSW,197,4.0,7.0,27,0.00,,,-99.99,0.000000,,2013-08-13 11:11:00,
2013-08-13 04:22:00,76.0,40.0,-100.00,SSW,197,4.0,7.0,27,0.00,,,-99.99,0.000000,,2013-08-13 11:22:00,
2013-08-13 04:31:00,76.0,40.0,-100.00,SSW,197,4.0,7.0,27,0.00,,,-99.99,0.000000,,2013-08-13 11:31:00,
2013-08-13 04:42:00,76.0,40.0,-100.00,SSW,197,4.0,7.0,27,0.00,,,-99.99,0.000000,,2013-08-13 11:42:00,
2013-08-13 05:21:00,75.0,39.0,-100.00,SSW,200,5.0,7.0,27,0.00,,,0.00,0.000000,,2013-08-13 12:21:00,
2013-08-13 05:31:00,75.0,39.0,-100.00,SSW,200,5.0,7.0,27,0.00,,,0.00,0.000000,,2013-08-13 12:31:00,
2013-08-13 05:41:00,75.0,39.0,-100.00,SSW,200,5.0,7.0,27,0.00,,,0.00,0.000000,,2013-08-13 12:41:00,
2013-08-13 06:11:00,73.0,37.0,-100.00,SW,219,5.0,7.0,27,0.00,,,-99.99,0.000000,,2013-08-13 13:11:00,
2013-08-13 06:21:00,73.0,37.0,-100.00,SW,219,5.0,7.0,27,0.00,,,-99.99,0.000000,,2013-08-13 13:21:00,
2013-08-13 06:32:00,73.0,37.0,-100.00,SW,219,5.0,7.0,27,0.00,,,-99.99,0.000000,,2013-08-13 13:32:00,
2013-08-13 06:41:00,73.0,37.0,-100.00,SW,219,5.0,7.0,27,0.00,,,-99.99,0.000000,,2013-08-13 13:41:00,
2013-08-13 07:11:00,74.0,41.0,-100.00,SSW,200,5.0,6.0,30,0.00,,,0.00,48.000000,,2013-08-13 14:11:00,
2013-08-13 07:21:00,74.0,41.0,-100.00,SSW,200,5.0,6.0,30,0.00,,,0.00,48.000000,,2013-08-13 14:21:00,
2013-08-13 07:31:00,74.0,41.0,-100.00,SSW,200,5.0,6.0,30,0.00,,,0.00,48.000000,,2013-08-13 14:31:00,
2013-08-13 07:42:00,74.0,41.0,-100.00,SSW,200,5.0,6.0,30,0.00,,,0.00,48.000000,,2013-08-13 14:42:00,
2013-08-13 09:13:00,90.0,38.0,-100.00,South,183,5.0,10.0,16,0.00,,,0.00,473.000000,,2013-08-13 16:13:00,
2013-08-13 09:23:00,90.0,38.0,-100.00,South,183,5.0,10.0,16,0.00,,,0.00,473.000000,,2013-08-13 16:23:00,
2013-08-13 09:36:00,90.0,38.0,-100.00,South,183,5.0,10.0,16,0.00,,,0.00,473.000000,,2013-08-13 16:36:00,
2013-08-13 09:44:00,90.0,38.0,-100.00,South,183,5.0,10.0,16,0.00,,,0.00,473.000000,,2013-08-13 16:44:00,
2013-08-13 10:16:00,95.0,38.0,-100.00,SSE,161,8.0,13.0,14,0.00,,,0.00,684.000000,,2013-08-13 17:16:00,
2013-08-13 10:27:00,95.0,38.0,-100.00,SSE,161,8.0,13.0,14,0.00,,,0.00,684.000000,,2013-08-13 17:27:00,
2013-08-13 10:37:00,95.0,38.0,-100.00,SSE,161,8.0,13.0,14,0.00,,,0.00,684.000000,,2013-08-13 17:37:00,
2013-08-13 10:45:00,-999.0,-99.9,-100.00,SSE,161,8.0,13.0,14,0.00,,,0.00,684.000000,,2013-08-13 17:45:00,
2013-08-13 11:15:00,98.0,39.0,-100.00,SSE,166,7.0,15.0,13,0.00,,,0.00,859.000000,,2013-08-13 18:15:00,
2013-08-13 11:25:00,98.0,39.0,-100.00,SSE,166,7.0,15.0,13,0.00,,,0.00,859.000000,,2013-08-13 18:25:00,
2013-08-13 11:37:00,98.0,39.0,-100.00,SSE,166,7.0,15.0,13,0.00,,,0.00,859.000000,,2013-08-13 18:37:00,
2013-08-13 11:44:00,98.0,39.0,-100.00,SSE,166,7.0,15.0,13,0.00,,,0.00,859.000000,,2013-08-13 18:44:00,
2013-08-13 12:14:00,101.0,34.0,-100.00,SSE,167,8.0,13.0,10,0.00,,,0.00,983.000000,,2013-08-13 19:14:00,
2013-08-13 12:24:00,101.0,34.0,-100.00,SSE,167,8.0,13.0,10,0.00,,,0.00,983.000000,,2013-08-13 19:24:00,
2013-08-13 12:36:00,101.0,34.0,-100.00,SSE,167,8.0,13.0,10,0.00,,,0.00,983.000000,,2013-08-13 19:36:00,
2013-08-13 12:44:00,101.0,34.0,-100.00,SSE,167,8.0,13.0,10,0.00,,,0.00,983.000000,,2013-08-13 19:44:00,
2013-08-13 13:15:00,104.0,39.0,-100.00,SSE,168,7.0,14.0,11,0.00,,,0.00,1053.000000,,2013-08-13 20:15:00,
2013-08-13 13:22:00,104.0,39.0,-100.00,SSE,168,7.0,14.0,11,0.00,,,0.00,1053.000000,,2013-08-13 20:22:00,
2013-08-13 13:32:00,104.0,39.0,-100.00,SSE,168,7.0,14.0,11,0.00,,,0.00,1053.000000,,2013-08-13 20:32:00,
2013-08-13 13:45:00,104.0,39.0,-100.00,SSE,168,7.0,14.0,11,0.00,,,0.00,1053.000000,,2013-08-13 20:45:00,
2013-08-13 14:11:00,106.0,38.0,-100.00,SSE,148,6.0,14.0,10,0.00,,,0.00,1047.000000,,2013-08-13 21:11:00,
2013-08-13 14:24:00,106.0,38.0,-100.00,SSE,148,6.0,14.0,10,0.00,,,0.00,1047.000000,,2013-08-13 21:24:00,
2013-08-13 14:34:00,106.0,38.0,-100.00,SSE,148,6.0,14.0,10,0.00,,,0.00,1047.000000,,2013-08-13 21:34:00,
2013-08-13 14:46:00,106.0,38.0,-100.00,SSE,148,6.0,14.0,10,0.00,,,0.00,1047.000000,,2013-08-13 21:46:00,
2013-08-13 14:48:00,107.0,36.0,-100.00,SE,130,7.0,12.0,9,0.00,,,0.00,971.000000,,2013-08-13 21:48:00,
2013-08-13 15:13:00,107.0,36.0,-100.00,SE,130,7.0,12.0,9,0.00,,,0.00,971.000000,,2013-08-13 22:13:00,
2013-08-13 15:22:00,107.0,36.0,-100.00,SE,130,7.0,12.0,9,0.00,,,0.00,971.000000,,2013-08-13 22:22:00,
2013-08-13 15:35:00,107.0,36.0,-100.00,SE,130,7.0,12.0,9,0.00,,,0.00,971.000000,,2013-08-13 22:35:00,
2013-08-13 17:11:00,106.0,41.0,-100.00,SE,144,6.0,10.0,11,0.00,,,0.00,630.000000,,2013-08-14 00:11:00,
2013-08-13 17:21:00,106.0,41.0,-100.00,SE,144,6.0,10.0,11,0.00,,,0.00,630.000000,,2013-08-14 00:21:00,
2013-08-13 17:31:00,106.0,41.0,-100.00,SE,144,6.0,10.0,11,0.00,,,0.00,630.000000,,2013-08-14 00:31:00,
2013-08-13 17:41:00,106.0,41.0,-100.00,SE,144,6.0,10.0,11,0.00,,,0.00,630.000000,,2013-08-14 00:41:00,
2013-08-13 18:21:00,105.0,42.0,-100.00,SSE,156,6.0,10.0,12,0.00,,,-99.99,406.000000,,2013-08-14 01:21:00,
2013-08-13 18:32:00,105.0,42.0,-100.00,SSE,156,6.0,10.0,12,0.00,,,-99.99,406.000000,,2013-08-14 01:32:00,
2013-08-13 18:42:00,105.0,42.0,-100.00,SSE,156,6.0,10.0,12,0.00,,,-99.99,406.000000,,2013-08-14 01:42:00,
2013-08-13 19:11:00,102.0,47.0,-100.00,SSE,151,4.0,8.0,16,0.00,,,0.00,184.000000,,2013-08-14 02:11:00,
2013-08-13 22:42:00,89.0,49.0,-100.00,SSW,204,5.0,7.0,25,-99.99,,,0.00,0.000000,,2013-08-14 05:42:00,